createdAt,value
2023-04-18T00:00:12.334Z,42.48
2023-04-18T00:02:39.984Z,42.61
2023-04-18T00:05:08.519Z,42.68
2023-04-18T00:07:35.599Z,42.95
2023-04-18T00:10:03.233Z,43.12
2023-04-18T00:12:30.192Z,43.33
2023-04-18T00:14:58.671Z,43.22
2023-04-18T00:17:28.632Z,43.37
2023-04-18T00:19:56.310Z,43.25
2023-04-18T00:22:23.304Z,43.14
2023-04-18T00:24:51.059Z,43.23
2023-04-18T00:27:18.562Z,43.16
2023-04-18T00:29:45.445Z,43.17
2023-04-18T00:32:14.370Z,43.16
2023-04-18T00:34:41.502Z,43.12
2023-04-18T00:37:08.531Z,43.12
2023-04-18T00:39:36.338Z,43.13
2023-04-18T00:42:03.996Z,43.23
2023-04-18T00:44:31.536Z,43.43
2023-04-18T00:46:58.491Z,43.41
2023-04-18T00:49:27.920Z,43.63
2023-04-18T00:51:56.532Z,44.00
2023-04-18T00:54:26.495Z,44.19
2023-04-18T00:56:53.782Z,44.26
2023-04-18T00:59:22.155Z,44.17
2023-04-18T01:01:49.207Z,44.24
2023-04-18T01:04:17.203Z,44.27
2023-04-18T01:06:45.855Z,44.28
2023-04-18T01:09:13.990Z,44.34
2023-04-18T01:11:41.057Z,44.02
2023-04-18T01:14:08.741Z,44.01
2023-04-18T01:16:36.960Z,43.81
2023-04-18T01:19:05.661Z,43.95
2023-04-18T01:21:37.380Z,44.15
2023-04-18T01:24:12.017Z,44.31
2023-04-18T01:26:39.791Z,44.26
2023-04-18T01:29:06.989Z,44.80
2023-04-18T01:31:36.048Z,44.75
2023-04-18T01:34:03.661Z,45.10
2023-04-18T01:36:31.685Z,45.41
2023-04-18T01:38:58.781Z,45.17
2023-04-18T01:41:29.652Z,45.10
2023-04-18T01:43:56.578Z,45.09
2023-04-18T01:46:24.748Z,45.27
2023-04-18T01:48:51.724Z,45.48
2023-04-18T01:51:18.668Z,45.79
2023-04-18T01:53:45.555Z,46.02
2023-04-18T01:56:12.592Z,46.27
2023-04-18T01:58:41.620Z,46.32
2023-04-18T02:01:08.782Z,46.40
2023-04-18T02:03:35.849Z,46.59
2023-04-18T02:06:04.594Z,46.51
2023-04-18T02:08:35.352Z,46.90
2023-04-18T02:11:02.341Z,47.02
2023-04-18T02:13:29.363Z,47.16
2023-04-18T02:15:57.643Z,46.98
2023-04-18T02:18:25.388Z,47.26
2023-04-18T02:20:52.592Z,47.22
2023-04-18T02:23:19.768Z,47.03
2023-04-18T02:25:46.671Z,47.20
2023-04-18T02:28:13.745Z,47.33
2023-04-18T02:30:40.662Z,47.21
2023-04-18T02:33:08.948Z,47.18
2023-04-18T02:35:38.589Z,47.19
2023-04-18T02:38:05.655Z,47.37
2023-04-18T02:40:32.610Z,47.48
2023-04-18T02:42:59.561Z,47.51
2023-04-18T02:45:26.478Z,47.41
2023-04-18T02:47:55.962Z,47.60
2023-04-18T02:50:25.265Z,47.71
2023-04-18T02:52:52.202Z,47.74
2023-04-18T02:55:19.434Z,47.76
2023-04-18T02:57:46.360Z,47.74
2023-04-18T03:00:14.664Z,47.73
2023-04-18T03:02:41.849Z,47.66
2023-04-18T03:05:09.306Z,47.52
2023-04-18T03:07:37.522Z,47.46
2023-04-18T03:10:05.842Z,47.66
2023-04-18T03:12:32.893Z,47.66
2023-04-18T03:14:59.769Z,47.70
2023-04-18T03:17:26.949Z,47.96
2023-04-18T03:19:53.971Z,47.94
2023-04-18T03:22:20.942Z,48.00
2023-04-18T03:24:49.121Z,48.09
2023-04-18T03:27:16.063Z,47.95
2023-04-18T03:29:43.033Z,48.21
2023-04-18T03:32:09.907Z,48.51
2023-04-18T03:34:36.846Z,48.40
2023-04-18T03:37:03.705Z,48.58
2023-04-18T03:39:30.610Z,48.50
2023-04-18T03:41:58.800Z,48.73
2023-04-18T03:44:25.758Z,48.60
2023-04-18T03:46:54.012Z,48.86
2023-04-18T03:49:20.907Z,48.93
2023-04-18T03:51:48.111Z,49.17
2023-04-18T03:54:15.948Z,48.94
2023-04-18T03:56:43.427Z,48.79
2023-04-18T03:59:12.223Z,49.11
2023-04-18T04:01:39.433Z,48.81
2023-04-18T04:04:06.713Z,48.99
2023-04-18T04:06:33.717Z,49.37
2023-04-18T04:09:00.903Z,49.28
2023-04-18T04:11:27.806Z,49.42
2023-04-18T04:13:54.676Z,49.70
2023-04-18T04:16:22.927Z,49.32
2023-04-18T04:18:50.012Z,49.42
2023-04-18T04:21:17.304Z,49.20
2023-04-18T04:23:46.123Z,49.22
2023-04-18T04:26:15.040Z,49.36
2023-04-18T04:28:42.837Z,49.42
2023-04-18T04:31:10.326Z,49.38
2023-04-18T04:33:38.943Z,49.60
2023-04-18T04:36:08.808Z,49.64
2023-04-18T04:38:38.304Z,49.58
2023-04-18T04:41:06.747Z,49.66
2023-04-18T04:43:33.705Z,49.50
2023-04-18T04:46:02.799Z,49.51
2023-04-18T04:48:29.834Z,49.36
2023-04-18T04:50:59.954Z,49.52
2023-04-18T04:53:32.083Z,49.67
2023-04-18T04:55:59.152Z,49.43
2023-04-18T04:58:26.687Z,49.48
2023-04-18T05:00:53.979Z,49.10
2023-04-18T05:03:21.282Z,49.09
2023-04-18T05:05:48.516Z,48.69
2023-04-18T05:08:16.890Z,48.43
2023-04-18T05:10:44.407Z,48.44
2023-04-18T05:13:11.617Z,48.48
2023-04-18T05:15:39.686Z,48.36
2023-04-18T05:18:06.753Z,48.10
2023-04-18T05:20:33.743Z,48.24
2023-04-18T05:23:00.896Z,48.16
2023-04-18T05:25:29.790Z,48.02
2023-04-18T05:27:57.002Z,47.86
2023-04-18T05:30:23.954Z,47.76
2023-04-18T05:32:50.876Z,47.90
2023-04-18T05:35:18.058Z,47.76
2023-04-18T05:37:44.970Z,47.98
2023-04-18T05:40:13.493Z,48.10
2023-04-18T05:42:41.768Z,48.33
2023-04-18T05:45:09.440Z,48.33
2023-04-18T05:47:36.414Z,48.48
2023-04-18T05:50:04.076Z,48.31
2023-04-18T05:52:31.806Z,48.00
2023-04-18T05:54:58.721Z,48.26
2023-04-18T05:57:25.936Z,48.29
2023-04-18T05:59:54.209Z,48.08
2023-04-18T06:02:21.543Z,48.16
2023-04-18T06:04:48.906Z,48.12
2023-04-18T06:07:16.330Z,47.72
2023-04-18T06:09:43.359Z,47.62
2023-04-18T06:12:10.707Z,47.58
2023-04-18T06:14:37.559Z,47.45
2023-04-18T06:17:07.230Z,47.43
2023-04-18T06:19:34.141Z,47.15
2023-04-18T06:22:01.472Z,47.19
2023-04-18T06:24:30.139Z,47.04
2023-04-18T06:26:58.220Z,47.13
2023-04-18T06:29:28.299Z,47.10
2023-04-18T06:31:55.456Z,46.97
2023-04-18T06:34:23.736Z,46.96
2023-04-18T06:36:50.944Z,46.89
2023-04-18T06:39:17.846Z,46.60
2023-04-18T06:41:44.756Z,46.60
2023-04-18T06:44:11.617Z,46.92
2023-04-18T06:46:38.584Z,47.07
2023-04-18T06:49:05.724Z,47.00
2023-04-18T06:51:34.149Z,46.87
2023-04-18T06:54:01.881Z,46.68
2023-04-18T06:56:29.923Z,46.65
2023-04-18T06:58:57.218Z,46.41
2023-04-18T07:01:24.149Z,46.40
2023-04-18T07:03:51.247Z,45.83
2023-04-18T07:06:18.661Z,45.85
2023-04-18T07:08:46.954Z,45.68
2023-04-18T07:11:14.024Z,45.81
2023-04-18T07:13:40.975Z,45.67
2023-04-18T07:16:09.785Z,45.72
2023-04-18T07:18:38.318Z,45.80
2023-04-18T07:21:07.485Z,45.67
2023-04-18T07:23:34.875Z,45.57
2023-04-18T07:26:03.584Z,45.04
2023-04-18T07:28:32.448Z,44.31
2023-04-18T07:31:01.096Z,43.69
2023-04-18T07:33:31.496Z,41.87
2023-04-18T07:35:58.557Z,40.86
2023-04-18T07:38:25.535Z,39.35
2023-04-18T07:40:57.543Z,37.60
2023-04-18T07:43:26.815Z,37.15
2023-04-18T07:45:53.986Z,35.42
2023-04-18T07:48:22.399Z,33.85
2023-04-18T07:50:49.683Z,31.11
2023-04-18T07:53:17.030Z,30.41
2023-04-18T07:55:44.288Z,29.87
2023-04-18T07:58:11.209Z,28.87
2023-04-18T08:00:42.269Z,27.70
2023-04-18T08:03:12.660Z,26.85
2023-04-18T08:05:40.370Z,26.70
2023-04-18T08:08:09.279Z,26.06
2023-04-18T08:10:36.298Z,24.50
2023-04-18T08:13:03.784Z,24.41
2023-04-18T08:15:32.430Z,24.35
2023-04-18T08:18:01.850Z,24.35
2023-04-18T08:20:28.988Z,23.45
2023-04-18T08:25:27.126Z,23.61
2023-04-18T08:27:54.012Z,22.60
2023-04-18T08:30:21.234Z,22.49
2023-04-18T08:32:49.382Z,23.10
2023-04-18T08:35:17.757Z,22.64
2023-04-18T08:37:44.684Z,22.01
2023-04-18T08:40:11.819Z,22.30
2023-04-18T08:42:40.865Z,21.54
2023-04-18T08:45:09.777Z,21.62
2023-04-18T08:47:37.012Z,21.49
2023-04-18T08:50:04.835Z,20.89
2023-04-18T08:52:36.124Z,20.53
2023-04-18T08:55:03.784Z,19.99
2023-04-18T08:57:31.721Z,20.04
2023-04-18T09:00:01.675Z,20.73
2023-04-18T09:02:44.686Z,21.38
2023-04-18T09:05:14.985Z,21.06
2023-04-18T09:07:43.434Z,20.81
2023-04-18T09:10:12.428Z,20.52
2023-04-18T09:12:50.254Z,20.80
2023-04-18T09:15:20.685Z,20.56
2023-04-18T09:17:50.993Z,20.91
2023-04-18T09:20:35.180Z,21.33
2023-04-18T09:23:05.796Z,21.05
2023-04-18T09:25:41.959Z,20.83
2023-04-18T09:28:23.696Z,20.11
2023-04-18T09:30:52.570Z,20.11
2023-04-18T09:33:32.377Z,19.23
2023-04-18T09:36:21.409Z,18.72
2023-04-18T09:38:55.342Z,19.65
2023-04-18T09:41:23.703Z,20.45
2023-04-18T09:44:08.793Z,21.68
2023-04-18T09:46:36.664Z,20.99
2023-04-18T09:49:03.684Z,20.07
2023-04-18T09:51:33.294Z,19.06
2023-04-18T09:54:04.955Z,18.51
2023-04-18T09:56:37.150Z,17.42
2023-04-18T09:59:09.196Z,17.02
2023-04-18T10:01:36.925Z,16.79
2023-04-18T10:04:06.611Z,16.29
2023-04-18T10:06:39.490Z,16.56
2023-04-18T10:09:09.840Z,16.29
2023-04-18T10:11:37.109Z,17.19
2023-04-18T10:14:11.456Z,16.33
2023-04-18T10:16:39.491Z,16.50
2023-04-18T10:19:25.137Z,17.13
2023-04-18T10:21:54.127Z,17.11
2023-04-18T10:24:49.405Z,17.95
2023-04-18T10:27:17.034Z,18.51
2023-04-18T10:29:47.704Z,19.69
2023-04-18T10:32:15.291Z,19.75
2023-04-18T10:34:42.447Z,19.42
2023-04-18T10:37:09.700Z,19.07
2023-04-18T10:39:58.299Z,18.10
2023-04-18T10:42:59.028Z,17.84
2023-04-18T10:45:28.434Z,17.38
2023-04-18T10:48:24.040Z,17.54
2023-04-18T10:51:13.251Z,18.27
2023-04-18T10:53:47.905Z,19.33
2023-04-18T10:56:16.651Z,20.45
2023-04-18T10:58:50.403Z,20.63
2023-04-18T11:01:27.484Z,20.24
2023-04-18T11:03:57.110Z,20.13
2023-04-18T11:06:28.792Z,19.82
2023-04-18T11:09:10.215Z,20.19
2023-04-18T11:11:38.670Z,20.89
2023-04-18T11:14:05.792Z,21.71
2023-04-18T11:16:34.278Z,22.41
2023-04-18T11:19:17.112Z,22.42
2023-04-18T11:21:44.097Z,22.48
2023-04-18T11:24:11.260Z,22.34
2023-04-18T11:26:39.785Z,22.46
2023-04-18T11:29:06.787Z,22.05
2023-04-18T11:31:33.958Z,21.97
2023-04-18T11:34:02.360Z,22.03
2023-04-18T11:36:29.350Z,23.20
2023-04-18T11:38:56.644Z,23.51
2023-04-18T11:41:23.755Z,23.36
2023-04-18T11:43:51.989Z,24.30
2023-04-18T11:46:18.958Z,25.25
2023-04-18T11:48:46.589Z,25.76
2023-04-18T11:51:34.353Z,26.54
2023-04-18T11:54:01.452Z,27.09
2023-04-18T11:56:28.637Z,27.86
2023-04-18T11:58:57.015Z,28.00
2023-04-18T12:01:27.031Z,27.95
2023-04-18T12:04:02.414Z,27.66
2023-04-18T12:06:48.387Z,27.51
2023-04-18T12:09:16.068Z,27.59
2023-04-18T12:11:43.375Z,27.06
2023-04-18T12:14:21.547Z,26.87
2023-04-18T12:16:49.694Z,27.46
2023-04-18T12:19:17.069Z,27.46
2023-04-18T12:21:56.685Z,27.43
2023-04-18T12:24:25.073Z,27.56
2023-04-18T12:26:52.909Z,27.60
2023-04-18T12:29:21.306Z,27.46
2023-04-18T12:31:48.334Z,27.86
2023-04-18T12:34:15.660Z,28.50
2023-04-18T12:36:42.893Z,28.63
2023-04-18T12:39:10.291Z,28.26
2023-04-18T12:41:37.499Z,28.72
2023-04-18T12:44:04.991Z,28.89
2023-04-18T12:46:33.352Z,29.35
2023-04-18T12:49:00.771Z,28.94
2023-04-18T12:51:27.990Z,29.41
2023-04-18T12:53:54.922Z,29.16
2023-04-18T12:56:21.976Z,28.90
2023-04-18T12:58:49.543Z,28.20
2023-04-18T13:01:17.054Z,27.85
2023-04-18T13:03:48.739Z,27.67
2023-04-18T13:06:20.622Z,28.05
2023-04-18T13:08:47.682Z,28.41
2023-04-18T13:11:14.892Z,28.42
2023-04-18T13:13:41.989Z,28.38
2023-04-18T13:16:09.030Z,29.24
2023-04-18T13:18:36.331Z,28.99
2023-04-18T13:21:04.873Z,29.20
2023-04-18T13:23:31.825Z,29.11
2023-04-18T13:25:58.851Z,29.33
2023-04-18T13:28:25.973Z,28.80
2023-04-18T13:30:52.943Z,28.16
2023-04-18T13:33:20.692Z,28.60
2023-04-18T13:35:48.415Z,28.33
2023-04-18T13:38:16.909Z,28.57
2023-04-18T13:40:43.907Z,28.25
2023-04-18T13:43:13.153Z,29.05
2023-04-18T13:45:40.392Z,29.27
2023-04-18T13:48:07.456Z,29.56
2023-04-18T13:50:34.633Z,29.54
2023-04-18T13:53:01.840Z,30.08
2023-04-18T13:55:30.291Z,30.41
2023-04-18T13:57:57.525Z,30.53
2023-04-18T14:00:24.945Z,30.51
2023-04-18T14:02:52.652Z,30.14
2023-04-18T14:05:19.862Z,30.48
2023-04-18T14:07:48.478Z,30.25
2023-04-18T14:10:15.589Z,29.81
2023-04-18T14:12:44.072Z,30.35
2023-04-18T14:15:11.862Z,29.63
2023-04-18T14:17:38.893Z,30.15
2023-04-18T14:20:08.542Z,29.35
2023-04-18T14:22:35.944Z,29.15
2023-04-18T14:25:03.075Z,29.46
2023-04-18T14:27:30.789Z,29.60
2023-04-18T14:30:00.089Z,29.28
2023-04-18T14:32:27.426Z,29.82
2023-04-18T14:34:54.314Z,29.65
2023-04-18T14:37:22.277Z,30.37
2023-04-18T14:39:49.480Z,30.26
2023-04-18T14:42:17.485Z,30.26
2023-04-18T14:44:44.593Z,30.46
2023-04-18T14:47:12.878Z,30.33
2023-04-18T14:49:39.805Z,30.22
2023-04-18T14:52:07.025Z,30.83
2023-04-18T14:54:34.061Z,30.28
2023-04-18T14:57:01.412Z,29.97
2023-04-18T14:59:28.732Z,29.19
2023-04-18T15:01:56.021Z,29.41
2023-04-18T15:04:24.683Z,29.03
2023-04-18T15:06:51.925Z,29.27
2023-04-18T15:09:18.869Z,29.33
2023-04-18T15:11:45.793Z,29.89
2023-04-18T15:14:13.285Z,29.66
2023-04-18T15:16:40.750Z,30.06
2023-04-18T15:19:08.048Z,29.45
2023-04-18T15:21:36.342Z,29.48
2023-04-18T15:24:03.638Z,29.35
2023-04-18T15:26:32.886Z,29.29
2023-04-18T15:29:02.986Z,29.40
2023-04-18T15:31:30.838Z,29.22
2023-04-18T15:33:58.387Z,30.00
2023-04-18T15:36:25.753Z,29.53
2023-04-18T15:38:54.129Z,29.28
2023-04-18T15:41:21.719Z,29.08
2023-04-18T15:43:49.113Z,29.17
2023-04-18T15:46:16.280Z,28.74
2023-04-18T15:48:46.148Z,28.92
2023-04-18T15:51:13.223Z,29.26
2023-04-18T15:53:40.199Z,30.21
2023-04-18T15:56:08.648Z,30.70
2023-04-18T15:58:35.641Z,30.83
2023-04-18T16:01:03.475Z,31.66
2023-04-18T16:03:30.749Z,31.94
2023-04-18T16:05:57.952Z,32.22
2023-04-18T16:08:25.022Z,32.57
2023-04-18T16:10:53.089Z,32.48
2023-04-18T16:13:21.378Z,33.61
2023-04-18T16:15:48.527Z,33.52
2023-04-18T16:18:15.837Z,34.29
2023-04-18T16:20:42.911Z,34.49
2023-04-18T16:23:09.876Z,35.00
2023-04-18T16:25:37.048Z,35.14
2023-04-18T16:28:04.631Z,34.31
2023-04-18T16:30:32.953Z,35.03
2023-04-18T16:32:59.959Z,34.93
2023-04-18T16:35:27.244Z,35.35
2023-04-18T16:37:54.330Z,35.46
2023-04-18T16:40:21.467Z,35.08
2023-04-18T16:42:48.366Z,35.05
2023-04-18T16:45:16.022Z,35.12
2023-04-18T16:47:44.382Z,35.29
2023-04-18T16:50:11.538Z,35.64
2023-04-18T16:52:38.807Z,35.86
2023-04-18T16:55:06.708Z,35.96
2023-04-18T16:57:36.794Z,36.90
2023-04-18T17:00:06.609Z,36.71
2023-04-18T17:02:33.780Z,37.66
2023-04-18T17:05:02.291Z,37.69
2023-04-18T17:07:30.299Z,38.07
2023-04-18T17:09:57.201Z,38.12
2023-04-18T17:12:24.361Z,38.16
2023-04-18T17:14:51.257Z,38.50
2023-04-18T17:17:18.231Z,38.34
2023-04-18T17:19:46.310Z,38.73
2023-04-18T17:22:14.679Z,39.06
2023-04-18T17:24:41.590Z,39.02
2023-04-18T17:27:08.811Z,39.36
2023-04-18T17:29:38.473Z,39.53
2023-04-18T17:32:09.201Z,39.88
2023-04-18T17:34:36.338Z,40.24
2023-04-18T17:37:03.371Z,40.69
2023-04-18T17:39:33.050Z,40.46
2023-04-18T17:42:00.954Z,40.76
2023-04-18T17:44:27.955Z,40.74
2023-04-18T17:46:54.948Z,40.98
2023-04-18T17:49:22.001Z,41.17
2023-04-18T17:51:49.026Z,41.23
2023-04-18T17:54:16.347Z,41.34
2023-04-18T17:56:45.421Z,41.35
2023-04-18T17:59:12.741Z,41.53
2023-04-18T18:01:40.225Z,41.71
2023-04-18T18:04:07.425Z,41.79
2023-04-18T18:06:34.565Z,42.05
2023-04-18T18:09:01.615Z,41.99
2023-04-18T18:11:28.662Z,42.17
2023-04-18T18:13:57.326Z,42.44
2023-04-18T18:16:24.963Z,42.40
2023-04-18T18:18:52.069Z,42.79
2023-04-18T18:21:19.254Z,42.46
2023-04-18T18:23:46.150Z,42.73
2023-04-18T18:26:13.055Z,42.63
2023-04-18T18:28:40.442Z,42.57
2023-04-18T18:31:12.079Z,43.08
2023-04-18T18:33:39.760Z,42.81
2023-04-18T18:36:07.319Z,42.68
2023-04-18T18:38:34.581Z,42.97
2023-04-18T18:41:03.631Z,42.78
2023-04-18T18:43:30.890Z,43.14
2023-04-18T18:45:57.828Z,43.17
2023-04-18T18:48:27.990Z,43.01
2023-04-18T18:50:56.397Z,42.96
2023-04-18T18:53:23.334Z,43.23
2023-04-18T18:55:51.321Z,42.98
2023-04-18T18:58:22.115Z,43.08
2023-04-18T19:00:49.282Z,43.16
2023-04-18T19:03:18.847Z,43.20
2023-04-18T19:05:47.442Z,43.27
2023-04-18T19:08:14.466Z,43.34
2023-04-18T19:10:41.742Z,43.47
2023-04-18T19:13:08.717Z,43.64
2023-04-18T19:15:39.120Z,43.67
2023-04-18T19:18:06.230Z,43.54
2023-04-18T19:20:33.234Z,43.50
2023-04-18T19:23:01.490Z,43.63
2023-04-18T19:25:28.402Z,43.64
2023-04-18T19:27:55.304Z,43.67
2023-04-18T19:30:22.357Z,43.98
2023-04-18T19:32:49.498Z,44.02
2023-04-18T19:35:16.989Z,44.06
2023-04-18T19:37:43.929Z,44.39
2023-04-18T19:40:13.979Z,44.26
2023-04-18T19:42:41.214Z,44.30
2023-04-18T19:45:11.179Z,43.91
2023-04-18T19:47:38.305Z,44.28
2023-04-18T19:50:07.443Z,44.65
2023-04-18T19:52:34.409Z,44.67
2023-04-18T19:55:01.535Z,44.69
2023-04-18T19:57:29.753Z,44.83
2023-04-18T19:59:56.725Z,44.72
2023-04-18T20:02:24.036Z,44.90
2023-04-18T20:04:51.373Z,45.34
2023-04-18T20:07:18.379Z,45.50
2023-04-18T20:09:45.512Z,45.61
2023-04-18T20:12:12.666Z,45.60
2023-04-18T20:14:40.867Z,46.16
2023-04-18T20:17:07.866Z,46.41
2023-04-18T20:19:34.914Z,46.43
2023-04-18T20:22:02.026Z,46.67
2023-04-18T20:24:31.573Z,46.38
2023-04-18T20:26:59.488Z,46.62
2023-04-18T20:29:27.388Z,46.72
2023-04-18T20:31:55.826Z,46.97
2023-04-18T20:34:23.231Z,46.77
2023-04-18T20:36:52.338Z,46.95
2023-04-18T20:39:19.674Z,47.17
2023-04-18T20:41:50.826Z,47.74
2023-04-18T20:44:22.065Z,47.21
2023-04-18T20:46:49.328Z,47.75
2023-04-18T20:49:17.861Z,48.02
2023-04-18T20:51:45.168Z,47.87
2023-04-18T20:54:12.542Z,47.80
2023-04-18T20:56:39.946Z,47.82
2023-04-18T20:59:09.009Z,47.97
2023-04-18T21:01:37.132Z,47.78
2023-04-18T21:04:05.096Z,47.96
2023-04-18T21:06:33.572Z,47.96
2023-04-18T21:09:00.759Z,47.94
2023-04-18T21:11:28.107Z,48.11
2023-04-18T21:13:55.455Z,48.53
2023-04-18T21:16:23.954Z,48.41
2023-04-18T21:18:51.358Z,48.63
2023-04-18T21:21:18.501Z,48.84
2023-04-18T21:23:46.904Z,48.48
2023-04-18T21:26:14.008Z,48.80
2023-04-18T21:28:58.619Z,48.86
2023-04-18T21:31:29.632Z,48.73
2023-04-18T21:33:58.774Z,48.78
2023-04-18T21:36:28.397Z,48.58
2023-04-18T21:38:59.059Z,48.69
2023-04-18T21:41:26.762Z,48.60
2023-04-18T21:43:53.996Z,48.48
2023-04-18T21:46:21.176Z,48.14
2023-04-18T21:48:48.793Z,47.70
2023-04-18T21:51:16.915Z,48.32
2023-04-18T21:53:44.137Z,47.47
2023-04-18T21:56:12.536Z,47.36
2023-04-18T21:58:39.516Z,47.06
2023-04-18T22:01:06.493Z,46.86
2023-04-18T22:03:34.479Z,46.94
2023-04-18T22:06:01.874Z,46.75
2023-04-18T22:08:29.392Z,46.58
2023-04-18T22:10:58.892Z,46.22
2023-04-18T22:13:34.610Z,45.99
2023-04-18T22:16:03.322Z,46.03
2023-04-18T22:18:33.972Z,45.72
2023-04-18T22:21:03.227Z,45.44
2023-04-18T22:23:30.846Z,45.68
2023-04-18T22:25:57.816Z,45.26
2023-04-18T22:28:25.060Z,45.06
2023-04-18T22:30:53.642Z,44.53
2023-04-18T22:33:20.641Z,44.75
2023-04-18T22:35:48.449Z,44.71
2023-04-18T22:38:15.796Z,44.43
2023-04-18T22:40:42.774Z,44.35
2023-04-18T22:43:09.817Z,44.25
2023-04-18T22:45:36.670Z,43.95
2023-04-18T22:48:11.199Z,44.16
2023-04-18T22:50:42.662Z,44.09
2023-04-18T22:53:10.178Z,44.07
2023-04-18T22:55:39.270Z,43.79
2023-04-18T22:58:06.830Z,43.42
2023-04-18T23:00:33.991Z,43.21
2023-04-18T23:03:01.176Z,43.42
2023-04-18T23:05:30.518Z,43.20
2023-04-18T23:07:59.575Z,42.79
2023-04-18T23:10:27.268Z,42.97
2023-04-18T23:12:54.213Z,42.78
2023-04-18T23:15:22.858Z,42.80
2023-04-18T23:17:52.146Z,42.53
2023-04-18T23:20:19.324Z,42.49
2023-04-18T23:22:49.963Z,42.70
2023-04-18T23:25:17.271Z,41.88
2023-04-18T23:27:44.221Z,41.96
2023-04-18T23:30:12.579Z,41.35
2023-04-18T23:32:39.660Z,41.52
2023-04-18T23:35:07.250Z,41.16
2023-04-18T23:37:34.205Z,40.98
2023-04-18T23:40:05.934Z,41.01
2023-04-18T23:42:35.844Z,41.17
2023-04-18T23:45:03.988Z,40.85
2023-04-18T23:47:32.592Z,39.95
2023-04-18T23:49:59.968Z,40.01
2023-04-18T23:52:27.174Z,40.11
2023-04-18T23:54:54.100Z,39.63
2023-04-18T23:57:22.284Z,39.94
2023-04-18T23:59:49.142Z,39.72
